createdAt,value
2018-09-21T00:00:03.803Z,10.27
2018-09-21T00:02:35.710Z,10.47
2018-09-21T00:05:06.062Z,8.60
2018-09-21T00:07:37.741Z,9.63
2018-09-21T00:10:09.309Z,7.90
2018-09-21T00:12:38.934Z,7.87
2018-09-21T00:15:08.740Z,10.33
2018-09-21T00:17:38.454Z,7.73
2018-09-21T00:20:08.128Z,8.80
2018-09-21T00:22:37.638Z,9.77
2018-09-21T00:25:07.150Z,7.80
2018-09-21T00:27:36.714Z,11.70
2018-09-21T00:30:07.374Z,7.70
2018-09-21T00:32:38.151Z,8.37
2018-09-21T00:35:09.765Z,7.97
2018-09-21T00:37:40.805Z,9.63
2018-09-21T00:40:12.722Z,9.40
2018-09-21T00:42:42.146Z,9.93
2018-09-21T00:45:14.646Z,8.23
2018-09-21T00:47:44.507Z,11.00
2018-09-21T00:50:14.093Z,10.00
2018-09-21T00:52:45.669Z,8.70
2018-09-21T00:55:15.439Z,11.20
2018-09-21T00:57:45.373Z,9.70
2018-09-21T01:00:16.204Z,10.40
2018-09-21T01:02:46.979Z,9.10
2018-09-21T01:05:17.556Z,10.97
2018-09-21T01:07:47.322Z,7.90
2018-09-21T01:10:19.149Z,8.33
2018-09-21T01:12:51.797Z,9.17
2018-09-21T01:15:21.507Z,12.00
2018-09-21T01:17:51.434Z,8.00
2018-09-21T01:20:21.235Z,10.90
2018-09-21T01:22:57.189Z,10.70
2018-09-21T01:25:26.839Z,10.67
2018-09-21T01:28:00.458Z,9.17
2018-09-21T01:30:30.421Z,8.80
2018-09-21T01:32:59.994Z,8.80
2018-09-21T01:35:29.737Z,10.93
2018-09-21T01:37:59.413Z,8.80
2018-09-21T01:40:29.978Z,9.33
2018-09-21T01:43:03.189Z,13.37
2018-09-21T01:45:33.391Z,8.03
2018-09-21T01:48:03.913Z,10.40
2018-09-21T01:50:34.480Z,10.57
2018-09-21T01:53:06.204Z,8.80
2018-09-21T01:55:36.938Z,11.60
2018-09-21T01:58:08.004Z,8.00
2018-09-21T02:00:40.041Z,11.83
2018-09-21T02:03:12.953Z,11.63
2018-09-21T02:05:43.701Z,8.17
2018-09-21T02:08:14.303Z,8.93
2018-09-21T02:10:44.340Z,10.03
2018-09-21T02:13:14.192Z,8.80
2018-09-21T02:15:44.474Z,8.40
2018-09-21T02:18:14.272Z,7.97
2018-09-21T02:20:44.093Z,8.07
2018-09-21T02:23:14.003Z,9.03
2018-09-21T02:25:43.711Z,10.90
2018-09-21T02:28:13.383Z,9.17
2018-09-21T02:30:44.174Z,7.80
2018-09-21T02:33:14.030Z,12.43
2018-09-21T02:35:46.611Z,9.03
2018-09-21T02:38:16.590Z,8.17
2018-09-21T02:40:47.185Z,9.67
2018-09-21T02:43:19.868Z,9.43
2018-09-21T02:45:50.945Z,7.67
2018-09-21T02:48:25.337Z,8.30
2018-09-21T02:50:55.137Z,9.27
2018-09-21T02:53:26.581Z,9.23
2018-09-21T02:55:57.461Z,7.87
2018-09-21T02:58:27.382Z,8.33
2018-09-21T03:00:59.258Z,9.10
2018-09-21T03:03:28.955Z,11.50
2018-09-21T03:06:00.498Z,9.77
2018-09-21T03:08:30.489Z,12.33
2018-09-21T03:11:01.723Z,7.90
2018-09-21T03:13:32.608Z,7.57
2018-09-21T03:16:17.976Z,9.50
2018-09-21T03:18:47.958Z,6.97
2018-09-21T03:21:19.402Z,8.90
2018-09-21T03:23:49.218Z,10.97
2018-09-21T03:26:21.422Z,8.00
2018-09-21T03:28:51.354Z,8.50
2018-09-21T03:31:21.387Z,12.00
2018-09-21T03:33:51.372Z,8.40
2018-09-21T03:36:21.299Z,9.40
2018-09-21T03:38:51.858Z,8.13
2018-09-21T03:41:21.693Z,9.03
2018-09-21T03:43:51.401Z,7.37
2018-09-21T03:46:24.633Z,7.73
2018-09-21T03:48:58.135Z,7.77
2018-09-21T03:51:28.496Z,8.77
2018-09-21T03:53:59.175Z,9.20
2018-09-21T03:56:29.029Z,7.00
2018-09-21T03:59:00.933Z,9.93
2018-09-21T04:01:31.809Z,9.80
2018-09-21T04:04:03.130Z,9.33
2018-09-21T04:06:33.705Z,8.77
2018-09-21T04:09:06.511Z,7.57
2018-09-21T04:11:38.494Z,9.60
2018-09-21T04:14:10.449Z,7.87
2018-09-21T04:16:42.313Z,8.40
2018-09-21T04:19:12.737Z,8.27
2018-09-21T04:21:43.230Z,9.40
2018-09-21T04:24:13.182Z,7.47
2018-09-21T04:26:45.100Z,7.73
2018-09-21T04:29:16.090Z,7.37
2018-09-21T04:31:47.695Z,8.60
2018-09-21T04:34:18.110Z,7.13
2018-09-21T04:36:52.540Z,7.63
2018-09-21T04:39:23.157Z,7.70
2018-09-21T04:41:53.027Z,8.73
2018-09-21T04:44:25.725Z,7.60
2018-09-21T04:47:03.673Z,7.67
2018-09-21T04:49:34.757Z,9.17
2018-09-21T04:52:05.063Z,8.60
2018-09-21T04:54:35.461Z,9.07
2018-09-21T04:57:06.280Z,7.53
2018-09-21T04:59:37.265Z,7.93
2018-09-21T05:02:08.716Z,8.60
2018-09-21T05:04:43.055Z,9.57
2018-09-21T05:07:13.590Z,9.30
2018-09-21T05:09:48.184Z,7.87
2018-09-21T05:12:24.063Z,8.83
2018-09-21T05:14:56.657Z,10.30
2018-09-21T05:17:32.337Z,10.90
2018-09-21T05:20:05.538Z,9.13
2018-09-21T05:22:38.422Z,9.00
2018-09-21T05:25:15.681Z,11.23
2018-09-21T05:27:51.782Z,7.70
2018-09-21T05:30:24.231Z,11.07
2018-09-21T05:32:56.015Z,10.33
2018-09-21T05:35:25.656Z,12.20
2018-09-21T05:37:55.389Z,10.10
2018-09-21T05:40:27.844Z,9.13
2018-09-21T05:42:58.335Z,12.70
2018-09-21T05:45:29.885Z,9.23
2018-09-21T05:48:01.414Z,9.93
2018-09-21T05:50:36.657Z,9.37
2018-09-21T05:53:08.083Z,9.47
2018-09-21T05:55:37.840Z,9.63
2018-09-21T05:58:09.656Z,11.77
2018-09-21T06:00:39.929Z,11.40
2018-09-21T06:03:10.382Z,7.83
2018-09-21T06:05:40.933Z,12.37
2018-09-21T06:08:10.745Z,14.57
2018-09-21T06:10:42.756Z,9.80
2018-09-21T06:13:13.542Z,11.93
2018-09-21T06:15:43.336Z,7.40
2018-09-21T06:18:16.693Z,14.10
2018-09-21T06:20:50.193Z,9.27
2018-09-21T06:23:21.473Z,10.23
2018-09-21T06:25:51.969Z,12.80
2018-09-21T06:28:23.063Z,18.07
2018-09-21T06:30:55.070Z,13.03
2018-09-21T06:33:27.109Z,12.03
2018-09-21T06:35:57.030Z,14.53
2018-09-21T06:38:29.663Z,8.23
2018-09-21T06:41:00.895Z,9.33
2018-09-21T06:46:18.362Z,9.23
2018-09-21T06:48:53.167Z,9.47
2018-09-21T06:51:22.814Z,10.60
2018-09-21T06:53:53.439Z,16.10
2018-09-21T06:56:24.606Z,10.47
2018-09-21T06:58:55.847Z,8.80
2018-09-21T07:01:25.686Z,7.53
2018-09-21T07:03:55.366Z,10.47
2018-09-21T07:06:25.610Z,10.80
2018-09-21T07:08:56.258Z,20.57
2018-09-21T07:11:25.859Z,10.37
2018-09-21T07:13:55.816Z,14.33
2018-09-21T07:16:25.545Z,12.00
2018-09-21T07:18:56.740Z,15.73
2018-09-21T07:21:27.357Z,11.57
2018-09-21T07:23:57.247Z,11.20
2018-09-21T07:26:29.946Z,9.73
2018-09-21T07:29:02.429Z,12.70
2018-09-21T07:31:33.975Z,8.37
2018-09-21T07:34:03.792Z,12.93
2018-09-21T07:36:33.493Z,10.23
2018-09-21T07:39:04.737Z,10.57
2018-09-21T07:41:34.309Z,16.10
2018-09-21T07:44:04.714Z,9.23
2018-09-21T07:46:34.489Z,13.80
2018-09-21T07:49:05.817Z,9.10
2018-09-21T07:51:35.744Z,11.27
2018-09-21T07:54:05.662Z,13.23
2018-09-21T07:56:36.840Z,15.30
2018-09-21T07:59:09.116Z,10.53
2018-09-21T08:01:38.741Z,13.97
2018-09-21T08:04:08.966Z,11.30
2018-09-21T08:06:39.509Z,8.90
2018-09-21T08:09:10.872Z,9.20
2018-09-21T08:11:40.374Z,13.70
2018-09-21T08:14:10.802Z,10.03
2018-09-21T08:16:44.963Z,12.63
2018-09-21T08:19:14.702Z,8.80
2018-09-21T08:21:44.576Z,13.20
2018-09-21T08:24:14.057Z,11.27
2018-09-21T08:26:44.107Z,11.77
2018-09-21T08:29:13.988Z,10.13
2018-09-21T08:31:44.885Z,8.07
2018-09-21T08:34:14.476Z,13.20
2018-09-21T08:36:44.248Z,13.27
2018-09-21T08:39:15.158Z,8.73
2018-09-21T08:41:46.234Z,11.73
2018-09-21T08:44:17.152Z,11.73
2018-09-21T08:46:47.174Z,12.77
2018-09-21T08:49:20.039Z,12.23
2018-09-21T08:51:50.398Z,14.17
2018-09-21T08:54:21.435Z,14.80
2018-09-21T08:56:51.364Z,8.23
2018-09-21T08:59:21.186Z,11.37
2018-09-21T09:01:52.065Z,8.80
2018-09-21T09:04:23.014Z,7.40
2018-09-21T09:06:52.727Z,6.77
2018-09-21T09:09:28.237Z,6.90
2018-09-21T09:11:58.664Z,9.13
2018-09-21T09:14:28.533Z,10.30
2018-09-21T09:17:00.593Z,8.33
2018-09-21T09:19:34.704Z,10.33
2018-09-21T09:22:06.140Z,15.13
2018-09-21T09:24:36.113Z,10.03
2018-09-21T09:27:06.908Z,10.53
2018-09-21T09:29:37.884Z,7.23
2018-09-21T09:32:07.883Z,14.93
2018-09-21T09:34:39.263Z,10.37
2018-09-21T09:37:09.238Z,11.23
2018-09-21T09:39:40.246Z,8.93
2018-09-21T09:42:16.560Z,7.37
2018-09-21T09:44:47.275Z,6.23
2018-09-21T09:47:17.368Z,13.90
2018-09-21T09:49:47.211Z,10.93
2018-09-21T09:52:17.206Z,9.47
2018-09-21T09:54:47.214Z,15.03
2018-09-21T09:57:17.222Z,13.60
2018-09-21T09:59:47.163Z,18.53
2018-09-21T10:02:16.953Z,17.87
2018-09-21T10:04:46.800Z,11.03
2018-09-21T10:07:16.447Z,14.73
2018-09-21T10:09:46.099Z,11.73
2018-09-21T10:12:16.328Z,10.87
2018-09-21T10:14:45.984Z,8.50
2018-09-21T10:17:18.589Z,8.57
2018-09-21T10:19:48.232Z,6.37
2018-09-21T10:22:19.828Z,13.13
2018-09-21T10:24:49.526Z,13.07
2018-09-21T10:27:19.419Z,16.87
2018-09-21T10:29:49.094Z,7.57
2018-09-21T10:32:19.376Z,9.93
2018-09-21T10:34:50.288Z,7.80
2018-09-21T10:37:22.858Z,9.70
2018-09-21T10:39:53.085Z,13.97
2018-09-21T10:42:23.881Z,12.10
2018-09-21T10:44:53.608Z,18.87
2018-09-21T10:47:27.395Z,15.57
2018-09-21T10:50:00.509Z,14.20
2018-09-21T10:52:30.951Z,12.70
2018-09-21T10:55:01.749Z,12.67
2018-09-21T10:57:31.913Z,16.30
2018-09-21T11:00:01.784Z,15.63
2018-09-21T11:02:31.625Z,16.70
2018-09-21T11:05:08.950Z,11.10
2018-09-21T11:07:42.072Z,13.30
2018-09-21T11:10:12.085Z,11.23
2018-09-21T11:12:41.861Z,27.20
2018-09-21T11:15:11.632Z,19.07
2018-09-21T11:17:41.537Z,12.57
2018-09-21T11:20:11.349Z,18.83
2018-09-21T11:22:44.645Z,15.43
2018-09-21T11:25:15.016Z,15.67
2018-09-21T11:27:44.781Z,10.13
2018-09-21T11:30:15.627Z,15.93
2018-09-21T11:32:45.438Z,14.07
2018-09-21T11:35:15.256Z,15.77
2018-09-21T11:37:45.032Z,9.90
2018-09-21T11:40:15.052Z,12.33
2018-09-21T11:42:45.400Z,7.43
2018-09-21T11:45:17.159Z,15.37
2018-09-21T11:47:47.623Z,13.20
2018-09-21T11:50:17.243Z,16.07
2018-09-21T11:52:47.121Z,10.40
2018-09-21T11:55:23.541Z,13.30
2018-09-21T11:57:54.518Z,11.87
2018-09-21T12:00:25.389Z,15.00
2018-09-21T12:02:58.687Z,9.43
2018-09-21T12:05:28.317Z,12.93
2018-09-21T12:07:58.084Z,9.27
2018-09-21T12:10:29.604Z,11.03
2018-09-21T12:13:03.310Z,11.33
2018-09-21T12:15:33.103Z,11.63
2018-09-21T12:18:04.389Z,10.07
2018-09-21T12:20:34.260Z,6.80
2018-09-21T12:23:04.289Z,10.43
2018-09-21T12:25:34.615Z,10.37
2018-09-21T12:28:04.473Z,14.80
2018-09-21T12:30:37.807Z,8.90
2018-09-21T12:33:14.240Z,7.87
2018-09-21T12:35:44.158Z,8.90
2018-09-21T12:38:14.000Z,10.67
2018-09-21T12:40:44.809Z,9.07
2018-09-21T12:43:15.223Z,13.07
2018-09-21T12:45:44.871Z,17.83
2018-09-21T12:48:14.470Z,13.50
2018-09-21T12:50:44.068Z,15.30
2018-09-21T12:53:13.686Z,13.50
2018-09-21T12:55:43.418Z,9.83
2018-09-21T12:58:13.257Z,9.90
2018-09-21T13:00:48.042Z,13.03
2018-09-21T13:03:17.980Z,10.23
2018-09-21T13:05:50.734Z,13.30
2018-09-21T13:08:20.511Z,20.03
2018-09-21T13:10:50.739Z,16.33
2018-09-21T13:13:20.544Z,11.53
2018-09-21T13:15:52.859Z,14.53
2018-09-21T13:18:24.278Z,7.20
2018-09-21T13:20:57.767Z,12.93
2018-09-21T13:23:27.592Z,12.30
2018-09-21T13:25:57.801Z,8.93
2018-09-21T13:28:28.740Z,11.63
2018-09-21T13:31:00.953Z,8.27
2018-09-21T13:33:33.424Z,10.03
2018-09-21T13:36:04.159Z,8.83
2018-09-21T13:38:34.267Z,12.43
2018-09-21T13:41:07.317Z,8.70
2018-09-21T13:43:37.339Z,6.40
2018-09-21T13:46:08.117Z,16.63
2018-09-21T13:48:38.246Z,16.23
2018-09-21T13:51:10.766Z,10.40
2018-09-21T13:53:40.480Z,8.90
2018-09-21T13:56:10.216Z,7.33
2018-09-21T13:58:41.130Z,11.40
2018-09-21T14:01:21.261Z,10.23
2018-09-21T14:04:32.916Z,12.30
2018-09-21T14:07:07.767Z,13.00
2018-09-21T14:09:39.288Z,13.87
2018-09-21T14:12:09.919Z,10.33
2018-09-21T14:14:40.994Z,10.20
2018-09-21T14:17:11.301Z,8.73
2018-09-21T14:19:46.628Z,7.60
2018-09-21T14:22:19.022Z,19.43
2018-09-21T14:24:49.012Z,8.87
2018-09-21T14:27:20.569Z,9.30
2018-09-21T14:29:50.707Z,9.10
2018-09-21T14:32:27.256Z,14.27
2018-09-21T14:34:57.063Z,8.77
2018-09-21T14:37:34.173Z,7.37
2018-09-21T14:40:04.582Z,14.07
2018-09-21T14:42:41.972Z,7.97
2018-09-21T14:45:12.448Z,9.87
2018-09-21T14:47:42.460Z,6.33
2018-09-21T14:50:15.208Z,7.90
2018-09-21T14:52:45.076Z,4.67
2018-09-21T14:55:15.129Z,6.70
2018-09-21T14:57:45.032Z,7.77
2018-09-21T15:00:14.921Z,7.93
2018-09-21T15:02:45.370Z,13.60
2018-09-21T15:05:15.187Z,21.00
2018-09-21T15:07:44.965Z,28.47
2018-09-21T15:10:15.439Z,36.20
2018-09-21T15:12:45.308Z,39.17
2018-09-21T15:15:15.257Z,21.97
2018-09-21T15:17:45.253Z,28.33
2018-09-21T15:20:15.437Z,13.60
2018-09-21T15:22:45.099Z,18.53
2018-09-21T15:25:15.635Z,22.03
2018-09-21T15:27:45.239Z,17.87
2018-09-21T15:30:18.423Z,19.37
2018-09-21T15:32:48.404Z,19.77
2018-09-21T15:35:18.009Z,13.77
2018-09-21T15:37:47.564Z,14.87
2018-09-21T15:40:17.274Z,8.20
2018-09-21T15:42:47.029Z,10.03
2018-09-21T15:45:17.127Z,12.50
2018-09-21T15:47:47.516Z,10.93
2018-09-21T15:50:19.686Z,10.90
2018-09-21T15:52:49.872Z,6.83
2018-09-21T15:55:19.767Z,4.07
2018-09-21T15:57:50.472Z,6.83
2018-09-21T16:00:20.305Z,2.57
2018-09-21T16:02:50.105Z,4.27
2018-09-21T16:05:20.693Z,7.80
2018-09-21T16:07:50.625Z,5.37
2018-09-21T16:10:20.292Z,2.50
2018-09-21T16:12:50.118Z,2.90
2018-09-21T16:15:19.900Z,3.33
2018-09-21T16:17:49.505Z,3.33
2018-09-21T16:20:19.149Z,5.43
2018-09-21T16:22:49.538Z,4.53
2018-09-21T16:25:20.242Z,2.70
2018-09-21T16:27:49.761Z,2.40
2018-09-21T16:30:19.396Z,1.87
2018-09-21T16:32:49.083Z,2.33
2018-09-21T16:35:18.430Z,3.07
2018-09-21T16:37:47.952Z,1.60
2018-09-21T16:40:17.272Z,2.97
2018-09-21T16:42:46.898Z,2.47
2018-09-21T16:45:16.572Z,3.40
2018-09-21T16:47:46.920Z,2.43
2018-09-21T16:50:17.461Z,3.13
2018-09-21T16:52:47.346Z,2.07
2018-09-21T16:55:17.061Z,6.23
2018-09-21T16:57:46.645Z,4.37
2018-09-21T17:00:16.675Z,3.57
2018-09-21T17:02:46.771Z,2.60
2018-09-21T17:05:16.631Z,3.73
2018-09-21T17:07:46.969Z,3.43
2018-09-21T17:10:18.541Z,4.23
2018-09-21T17:12:48.477Z,2.83
2018-09-21T17:15:19.335Z,4.10
2018-09-21T17:17:49.051Z,5.00
2018-09-21T17:20:23.953Z,4.70
2018-09-21T17:22:53.647Z,5.57
2018-09-21T17:25:23.948Z,4.93
2018-09-21T17:27:55.180Z,2.87
2018-09-21T17:30:32.521Z,6.10
2018-09-21T17:33:03.288Z,6.07
2018-09-21T17:35:32.939Z,9.30
2018-09-21T17:38:02.603Z,5.80
2018-09-21T17:40:34.373Z,4.67
2018-09-21T17:43:04.123Z,3.63
2018-09-21T17:45:34.033Z,3.83
2018-09-21T17:48:03.763Z,8.43
2018-09-21T17:50:33.673Z,6.50
2018-09-21T17:53:03.471Z,5.30
2018-09-21T17:55:33.159Z,5.37
2018-09-21T17:58:02.643Z,5.07
2018-09-21T18:00:32.308Z,6.00
2018-09-21T18:03:02.089Z,4.30
2018-09-21T18:05:34.597Z,5.33
2018-09-21T18:08:05.150Z,5.33
2018-09-21T18:10:34.867Z,7.33
2018-09-21T18:13:06.347Z,4.53
2018-09-21T18:15:42.134Z,6.23
2018-09-21T18:18:13.245Z,8.13
2018-09-21T18:20:42.826Z,10.57
2018-09-21T18:23:12.542Z,6.27
2018-09-21T18:25:43.009Z,6.17
2018-09-21T18:28:12.843Z,5.60
2018-09-21T18:30:44.518Z,15.20
2018-09-21T18:33:14.448Z,5.00
2018-09-21T18:35:44.266Z,5.77
2018-09-21T18:38:14.191Z,8.20
2018-09-21T18:40:43.953Z,9.03
2018-09-21T18:43:21.827Z,5.50
2018-09-21T18:45:51.691Z,5.00
2018-09-21T18:48:22.162Z,6.53
2018-09-21T18:50:51.686Z,5.07
2018-09-21T18:53:23.557Z,7.03
2018-09-21T18:55:53.417Z,9.17
2018-09-21T18:58:23.269Z,8.63
2018-09-21T19:00:52.780Z,4.77
2018-09-21T19:03:23.107Z,6.97
2018-09-21T19:05:55.580Z,4.13
2018-09-21T19:08:25.418Z,3.10
2018-09-21T19:10:59.573Z,4.47
2018-09-21T19:13:29.823Z,5.73
2018-09-21T19:16:03.908Z,4.67
2018-09-21T19:18:37.961Z,6.17
2018-09-21T19:21:10.326Z,4.27
2018-09-21T19:23:40.678Z,4.73
2018-09-21T19:26:15.309Z,6.80
2018-09-21T19:31:35.442Z,5.10
2018-09-21T19:34:06.344Z,5.17
2018-09-21T19:36:37.743Z,6.20
2018-09-21T19:39:12.537Z,5.90
2018-09-21T19:41:42.679Z,3.80
2018-09-21T19:44:13.487Z,4.23
2018-09-21T19:46:45.087Z,7.17
2018-09-21T19:49:15.591Z,4.70
2018-09-21T19:51:45.982Z,7.80
2018-09-21T19:54:16.180Z,4.13
2018-09-21T19:56:52.435Z,5.33
2018-09-21T19:59:24.431Z,7.47
2018-09-21T20:01:54.960Z,10.37
2018-09-21T20:04:24.684Z,8.67
2018-09-21T20:06:54.611Z,3.40
2018-09-21T20:09:24.308Z,5.57
2018-09-21T20:12:02.166Z,6.43
2018-09-21T20:14:31.986Z,6.80
2018-09-21T20:17:02.187Z,10.70
2018-09-21T20:19:35.076Z,7.40
2018-09-21T20:22:08.325Z,6.30
2018-09-21T20:24:38.847Z,5.83
2018-09-21T20:27:11.316Z,6.37
2018-09-21T20:29:41.199Z,5.27
2018-09-21T20:32:15.894Z,4.23
2018-09-21T20:34:45.388Z,7.27
2018-09-21T20:37:14.919Z,6.80
2018-09-21T20:39:44.617Z,5.90
2018-09-21T20:42:17.191Z,7.33
2018-09-21T20:44:47.075Z,6.57
2018-09-21T20:47:17.652Z,8.53
2018-09-21T20:49:47.706Z,8.30
2018-09-21T20:52:20.903Z,3.87
2018-09-21T20:54:54.014Z,7.67
2018-09-21T20:57:23.895Z,8.60
2018-09-21T20:59:54.205Z,7.20
2018-09-21T21:02:29.376Z,6.27
2018-09-21T21:04:58.976Z,6.70
2018-09-21T21:07:32.363Z,7.43
2018-09-21T21:10:01.894Z,6.93
2018-09-21T21:12:32.367Z,6.37
2018-09-21T21:15:02.000Z,5.00
2018-09-21T21:17:31.649Z,5.97
2018-09-21T21:20:02.637Z,6.83
2018-09-21T21:22:33.274Z,7.10
2018-09-21T21:25:04.076Z,13.23
2018-09-21T21:27:38.895Z,8.70
2018-09-21T21:30:09.610Z,7.53
2018-09-21T21:32:40.320Z,6.90
2018-09-21T21:35:09.951Z,5.63
2018-09-21T21:37:40.020Z,5.63
2018-09-21T21:40:09.669Z,7.10
2018-09-21T21:42:39.431Z,7.10
2018-09-21T21:45:10.395Z,5.00
2018-09-21T21:47:40.173Z,5.80
2018-09-21T21:50:09.907Z,8.10
2018-09-21T21:52:40.589Z,5.73
2018-09-21T21:55:10.360Z,5.50
2018-09-21T21:57:44.409Z,7.90
2018-09-21T22:00:14.299Z,6.67
2018-09-21T22:02:49.900Z,5.73
2018-09-21T22:05:22.925Z,5.60
2018-09-21T22:07:55.834Z,7.47
2018-09-21T22:10:26.397Z,3.27
2018-09-21T22:13:01.899Z,6.57
2018-09-21T22:15:32.773Z,3.27
2018-09-21T22:18:04.127Z,7.93
2018-09-21T22:20:45.280Z,8.47
2018-09-21T22:23:17.432Z,5.20
2018-09-21T22:25:57.382Z,3.00
2018-09-21T22:28:32.722Z,7.93
2018-09-21T22:31:03.296Z,4.27
2018-09-21T22:33:35.741Z,5.13
2018-09-21T22:36:06.590Z,3.80
2018-09-21T22:38:37.445Z,3.27
2018-09-21T22:41:07.802Z,5.17
2018-09-21T22:43:37.408Z,2.93
2018-09-21T22:46:09.781Z,2.73
2018-09-21T22:48:41.879Z,3.33
2018-09-21T22:51:11.670Z,5.37
2018-09-21T22:53:41.555Z,3.43
2018-09-21T22:56:11.284Z,4.30
2018-09-21T22:58:41.036Z,5.10
2018-09-21T23:01:14.881Z,3.90
2018-09-21T23:03:44.748Z,3.10
2018-09-21T23:06:15.137Z,6.93
2018-09-21T23:08:45.151Z,3.90
2018-09-21T23:11:15.139Z,4.87
2018-09-21T23:13:44.859Z,2.77
2018-09-21T23:16:14.434Z,2.90
2018-09-21T23:18:45.387Z,3.07
2018-09-21T23:21:15.061Z,3.97
2018-09-21T23:23:45.215Z,2.60
2018-09-21T23:26:15.643Z,3.23
2018-09-21T23:28:45.348Z,2.67
2018-09-21T23:31:14.994Z,4.37
2018-09-21T23:33:45.529Z,5.50
2018-09-21T23:36:15.450Z,1.33
2018-09-21T23:38:45.195Z,3.70
2018-09-21T23:41:15.799Z,3.17
2018-09-21T23:43:48.021Z,3.30
2018-09-21T23:46:17.835Z,2.37
2018-09-21T23:48:47.880Z,1.77
2018-09-21T23:51:17.385Z,4.60
2018-09-21T23:53:46.793Z,1.97
2018-09-21T23:56:16.194Z,1.87
2018-09-21T23:58:45.866Z,2.33
